Time;durP1;ratioP1;P1;durP2;ratioP2;P2;SDS_P1;SDS_P2;PMS_P1;PMS_P2;Temp;Humidity;BMP_temperature;BMP_pressure;BME280_temperature;BME280_humidity;BME280_pressure;Samples;Min_cycle;Max_cycle;Signal;HPM_P1;HPM_P2
2021/06/25 00:02:07;;;;;;;8.23;7.53;;;18.00;99.90;;;;;;5038205;28;20526;-82
2021/06/25 00:04:34;;;;;;;8.43;7.60;;;18.00;99.90;;;;;;5038350;28;20451;-82
2021/06/25 00:07:00;;;;;;;7.97;7.27;;;18.00;99.90;;;;;;5041801;28;20478;-82
2021/06/25 00:09:27;;;;;;;7.80;7.20;;;18.00;99.90;;;;;;5052910;28;20510;-81
2021/06/25 00:11:53;;;;;;;8.43;7.70;;;18.00;99.90;;;;;;5053550;28;20943;-80
2021/06/25 00:14:22;;;;;;;9.40;8.47;;;18.00;99.90;;;;;;5053846;28;20451;-80
2021/06/25 00:16:49;;;;;;;8.63;7.80;;;18.00;99.90;;;;;;5053653;28;20475;-80
2021/06/25 00:19:16;;;;;;;8.20;7.50;;;18.00;99.90;;;;;;5047869;28;20473;-81
2021/06/25 00:21:43;;;;;;;12.37;8.60;;;18.00;99.90;;;;;;5047038;28;20475;-80
2021/06/25 00:24:10;;;;;;;10.90;8.63;;;18.00;99.90;;;;;;5044559;28;20518;-82
2021/06/25 00:26:37;;;;;;;8.40;7.60;;;18.00;99.90;;;;;;5038592;28;20451;-82
2021/06/25 00:29:04;;;;;;;8.57;7.70;;;18.00;99.90;;;;;;5038298;28;20506;-82
2021/06/25 00:31:33;;;;;;;9.13;7.90;;;18.00;99.90;;;;;;5037559;28;20554;-82
2021/06/25 00:33:59;;;;;;;10.27;9.33;;;18.00;99.90;;;;;;5038444;28;20450;-82
2021/06/25 00:36:26;;;;;;;10.10;9.07;;;18.10;99.90;;;;;;5038639;28;20447;-82
2021/06/25 00:38:53;;;;;;;11.07;9.77;;;18.10;99.90;;;;;;5038694;28;20443;-82
2021/06/25 00:41:19;;;;;;;9.87;8.93;;;18.10;99.90;;;;;;5037890;28;20514;-81
2021/06/25 00:43:46;;;;;;;10.97;9.97;;;18.10;99.90;;;;;;5037733;28;20969;-80
2021/06/25 00:46:13;;;;;;;9.93;8.90;;;18.10;99.90;;;;;;5037968;28;21036;-82
2021/06/25 00:48:41;;;;;;;12.30;11.20;;;18.00;99.90;;;;;;5038528;28;20451;-82
2021/06/25 00:51:07;;;;;;;10.47;9.57;;;18.00;99.90;;;;;;5040088;28;20529;-82
2021/06/25 00:53:34;;;;;;;10.70;9.37;;;18.00;99.90;;;;;;5044756;28;20943;-79
2021/06/25 00:56:01;;;;;;;10.80;9.70;;;18.00;99.90;;;;;;5046673;28;20446;-80
2021/06/25 00:58:27;;;;;;;9.90;8.97;;;17.90;99.90;;;;;;5037849;28;20450;-82
2021/06/25 01:00:54;;;;;;;13.00;10.20;;;17.90;99.90;;;;;;5038055;28;20505;-81
2021/06/25 01:03:21;;;;;;;13.43;9.00;;;17.90;99.90;;;;;;5037717;28;20450;-81
2021/06/25 01:05:49;;;;;;;11.53;9.10;;;17.90;99.90;;;;;;5037583;28;20473;-81
2021/06/25 01:08:15;;;;;;;12.13;9.13;;;17.90;99.90;;;;;;5036744;28;21004;-82
2021/06/25 01:10:42;;;;;;;10.90;9.80;;;17.60;99.90;;;;;;5036494;28;20499;-81
2021/06/25 01:13:10;;;;;;;13.30;10.73;;;17.90;99.90;;;;;;5037076;28;20443;-81
2021/06/25 01:15:37;;;;;;;10.60;9.50;;;17.80;99.90;;;;;;5036556;28;20452;-82
2021/06/25 01:18:04;;;;;;;9.30;8.07;;;17.80;99.90;;;;;;5036574;28;20448;-81
2021/06/25 01:20:33;;;;;;;10.40;8.43;;;17.80;99.90;;;;;;5035860;28;20442;-81
2021/06/25 01:23:04;;;;;;;9.30;8.20;;;17.80;99.90;;;;;;5036620;28;20443;-81
2021/06/25 01:25:33;;;;;;;9.17;8.27;;;17.80;99.90;;;;;;5036420;28;20427;-81
2021/06/25 01:28:03;;;;;;;8.10;7.50;;;17.80;99.90;;;;;;5036769;28;20854;-82
2021/06/25 01:30:32;;;;;;;8.90;8.00;;;17.90;99.90;;;;;;5037136;28;20483;-81
2021/06/25 01:32:59;;;;;;;7.80;7.20;;;17.90;99.90;;;;;;5051287;28;20440;-80
2021/06/25 01:35:27;;;;;;;8.53;7.83;;;17.90;99.90;;;;;;5045158;28;20533;-81
2021/06/25 01:37:53;;;;;;;9.33;8.27;;;17.90;99.90;;;;;;5037298;28;20442;-81
2021/06/25 01:40:24;;;;;;;9.30;8.37;;;17.90;99.90;;;;;;5036649;28;20446;-81
2021/06/25 01:42:51;;;;;;;9.70;8.70;;;18.00;99.90;;;;;;5036793;28;20907;-81
2021/06/25 01:45:20;;;;;;;9.30;8.50;;;17.90;99.90;;;;;;5036468;28;20500;-81
2021/06/25 01:47:47;;;;;;;10.73;9.17;;;17.90;99.90;;;;;;5036062;28;20483;-82
2021/06/25 01:50:17;;;;;;;8.80;8.00;;;17.90;99.90;;;;;;5036147;28;20853;-82
2021/06/25 01:52:44;;;;;;;9.87;8.87;;;17.90;99.90;;;;;;5036163;28;20479;-81
2021/06/25 01:55:12;;;;;;;8.73;7.97;;;17.90;99.90;;;;;;5037890;28;20450;-81
2021/06/25 01:57:40;;;;;;;10.60;8.57;;;17.90;99.90;;;;;;5037228;28;20470;-82
2021/06/25 02:00:08;;;;;;;10.60;9.70;;;17.90;99.90;;;;;;5036093;28;20797;-81
2021/06/25 02:02:35;;;;;;;10.17;9.17;;;17.90;99.90;;;;;;5036737;28;20471;-81
2021/06/25 02:05:01;;;;;;;10.17;8.93;;;17.90;99.90;;;;;;5036642;28;20495;-81
2021/06/25 02:07:28;;;;;;;10.70;9.70;;;17.90;99.90;;;;;;5036390;28;20503;-82
2021/06/25 02:09:56;;;;;;;10.87;8.80;;;17.90;99.90;;;;;;5036614;28;20839;-81
2021/06/25 02:12:23;;;;;;;13.13;9.27;;;17.90;99.90;;;;;;5036756;28;20541;-82
2021/06/25 02:14:52;;;;;;;9.20;8.30;;;17.90;99.90;;;;;;5036391;28;20451;-81
2021/06/25 02:17:18;;;;;;;10.80;9.80;;;17.90;99.90;;;;;;5036133;28;20506;-81
2021/06/25 02:19:45;;;;;;;10.73;9.80;;;17.80;99.90;;;;;;5035882;28;20447;-82
2021/06/25 02:22:12;;;;;;;10.37;9.37;;;17.80;99.90;;;;;;5036389;28;20458;-81
2021/06/25 02:24:39;;;;;;;10.47;9.37;;;17.80;99.90;;;;;;5036440;28;20455;-82
2021/06/25 02:27:07;;;;;;;11.20;10.00;;;17.80;99.90;;;;;;5035811;28;20448;-81
2021/06/25 02:29:34;;;;;;;10.80;9.60;;;17.80;99.90;;;;;;5036166;28;20484;-82
2021/06/25 02:32:02;;;;;;;10.87;9.80;;;17.80;99.90;;;;;;5037455;28;20561;-82
2021/06/25 02:34:29;;;;;;;13.10;10.60;;;17.80;99.90;;;;;;5039866;28;20486;-82
2021/06/25 02:36:56;;;;;;;11.57;10.23;;;17.90;99.90;;;;;;5040456;28;21007;-81
2021/06/25 02:39:22;;;;;;;16.37;10.93;;;17.90;99.90;;;;;;5039462;28;20526;-81
2021/06/25 02:41:49;;;;;;;15.30;12.10;;;17.80;99.90;;;;;;5038841;28;20525;-82
2021/06/25 02:44:15;;;;;;;15.27;11.23;;;17.80;99.90;;;;;;5039159;28;20471;-81
2021/06/25 02:46:42;;;;;;;14.30;12.50;;;17.70;99.90;;;;;;5039579;28;20868;-82
2021/06/25 02:49:10;;;;;;;13.17;11.87;;;17.70;99.90;;;;;;5039186;28;21007;-82
2021/06/25 02:51:36;;;;;;;13.00;11.57;;;17.70;99.90;;;;;;5047616;28;20472;-80
2021/06/25 02:54:03;;;;;;;12.63;11.40;;;17.70;99.90;;;;;;5052628;28;20474;-80
2021/06/25 02:56:30;;;;;;;13.70;12.30;;;17.70;99.90;;;;;;5055132;28;20458;-81
2021/06/25 02:58:57;;;;;;;12.60;11.37;;;17.70;99.90;;;;;;5050895;28;20914;-81
2021/06/25 03:01:23;;;;;;;14.10;12.20;;;17.60;99.90;;;;;;5043187;28;20490;-81
2021/06/25 03:03:50;;;;;;;15.40;11.63;;;17.60;99.90;;;;;;5041681;28;20505;-81
2021/06/25 03:06:18;;;;;;;15.77;11.93;;;17.50;99.90;;;;;;5040044;28;20446;-82
2021/06/25 03:08:44;;;;;;;13.37;12.07;;;17.50;99.90;;;;;;5039331;28;20816;-82
2021/06/25 03:11:11;;;;;;;15.47;12.90;;;17.50;99.90;;;;;;5039045;28;20494;-81
2021/06/25 03:13:37;;;;;;;14.13;12.63;;;17.50;99.90;;;;;;5038757;28;20458;-81
2021/06/25 03:16:04;;;;;;;14.60;13.10;;;17.50;99.90;;;;;;5040507;28;20515;-81
2021/06/25 03:18:31;;;;;;;18.47;13.63;;;17.50;99.90;;;;;;5037973;28;20970;-82
2021/06/25 03:20:58;;;;;;;15.03;13.63;;;17.50;99.90;;;;;;5038194;28;20464;-81
2021/06/25 03:23:26;;;;;;;14.13;12.80;;;17.60;99.90;;;;;;5038495;28;20465;-82
2021/06/25 03:25:52;;;;;;;13.93;12.63;;;17.60;99.90;;;;;;5044127;28;20471;-82
2021/06/25 03:28:19;;;;;;;14.93;13.53;;;17.50;99.90;;;;;;5056097;28;20472;-79
2021/06/25 03:33:28;;;;;;;15.90;14.47;;;17.60;99.90;;;;;;5136466;27;20513;-81
2021/06/25 03:35:54;;;;;;;15.80;14.20;;;17.70;99.90;;;;;;5135896;28;20454;-80
2021/06/25 03:38:21;;;;;;;14.97;13.47;;;17.70;99.90;;;;;;5133750;28;20455;-81
2021/06/25 03:40:48;;;;;;;16.60;14.90;;;17.70;99.90;;;;;;5128000;28;20497;-81
2021/06/25 03:43:14;;;;;;;16.57;14.93;;;17.70;99.90;;;;;;5127869;28;20467;-82
2021/06/25 03:45:44;;;;;;;18.20;16.20;;;17.70;99.90;;;;;;5122367;28;20474;-82
2021/06/25 03:48:10;;;;;;;16.93;15.23;;;17.70;99.90;;;;;;5117895;28;20440;-82
2021/06/25 03:50:38;;;;;;;17.00;15.30;;;17.70;99.90;;;;;;5116298;28;20485;-81
2021/06/25 03:53:05;;;;;;;17.93;15.57;;;17.70;99.90;;;;;;5114596;28;20586;-81
2021/06/25 03:55:32;;;;;;;18.23;16.30;;;17.60;99.90;;;;;;5116130;28;20447;-82
2021/06/25 03:57:58;;;;;;;17.83;14.17;;;17.70;99.90;;;;;;5117045;28;20451;-80
2021/06/25 04:00:25;;;;;;;16.17;14.57;;;17.70;99.90;;;;;;5132131;28;20423;-80
2021/06/25 04:02:52;;;;;;;17.07;14.40;;;17.70;99.90;;;;;;5129177;28;20456;-81
2021/06/25 04:05:19;;;;;;;16.70;15.10;;;17.70;99.90;;;;;;5115594;28;20467;-82
2021/06/25 04:07:47;;;;;;;17.43;15.67;;;17.70;99.90;;;;;;5115902;28;20468;-81
2021/06/25 04:10:14;;;;;;;18.17;15.90;;;17.70;99.90;;;;;;5117123;28;20498;-81
2021/06/25 04:12:41;;;;;;;20.47;17.57;;;17.70;99.90;;;;;;5128355;28;20493;-79
2021/06/25 04:15:09;;;;;;;18.87;16.97;;;17.70;99.90;;;;;;5136133;28;20420;-78
2021/06/25 04:17:36;;;;;;;20.83;17.43;;;17.70;99.90;;;;;;5135543;28;20440;-80
2021/06/25 04:20:03;;;;;;;21.80;17.13;;;17.60;99.90;;;;;;5132843;28;20473;-82
2021/06/25 04:22:29;;;;;;;19.03;17.13;;;17.60;99.90;;;;;;5123800;28;20466;-81
2021/06/25 04:24:57;;;;;;;19.33;17.17;;;17.60;99.90;;;;;;5122887;28;20470;-81
2021/06/25 04:27:24;;;;;;;20.37;18.23;;;17.60;99.90;;;;;;5124897;28;20447;-81
2021/06/25 04:29:50;;;;;;;22.20;17.40;;;17.60;99.90;;;;;;5128591;28;20436;-80
2021/06/25 04:32:19;;;;;;;20.57;17.17;;;17.70;99.90;;;;;;5129746;28;20495;-79
2021/06/25 04:34:46;;;;;;;19.93;17.13;;;17.60;99.90;;;;;;5131939;28;20449;-80
2021/06/25 04:37:13;;;;;;;19.23;17.23;;;17.60;99.90;;;;;;5132252;28;20953;-80
2021/06/25 04:39:40;;;;;;;20.80;17.37;;;17.60;99.90;;;;;;5131884;28;20444;-80
2021/06/25 04:42:10;;;;;;;22.00;18.53;;;17.70;99.90;;;;;;5131510;28;20554;-80
2021/06/25 04:44:37;;;;;;;19.60;17.53;;;17.70;99.90;;;;;;5119092;28;20403;-81
2021/06/25 04:47:04;;;;;;;20.90;17.53;;;17.70;99.90;;;;;;5113425;28;20442;-82
2021/06/25 04:49:31;;;;;;;18.93;16.97;;;17.70;99.90;;;;;;5103437;28;20444;-82
2021/06/25 04:51:58;;;;;;;19.07;17.07;;;17.80;99.90;;;;;;5102312;28;20546;-81
2021/06/25 04:54:24;;;;;;;21.00;15.80;;;17.80;99.90;;;;;;5101186;28;20858;-82
2021/06/25 04:56:51;;;;;;;20.63;16.30;;;17.80;99.90;;;;;;5102104;28;20479;-82
2021/06/25 04:59:19;;;;;;;19.60;17.60;;;17.80;99.90;;;;;;5102279;28;20970;-82
2021/06/25 05:01:47;;;;;;;17.97;15.93;;;17.80;99.90;;;;;;5101962;28;20481;-81
2021/06/25 05:04:13;;;;;;;20.00;16.70;;;17.80;99.90;;;;;;5101772;28;20531;-81
2021/06/25 05:06:40;;;;;;;17.77;15.90;;;17.80;99.90;;;;;;5117717;28;20449;-79
2021/06/25 05:09:06;;;;;;;15.70;14.10;;;17.90;99.90;;;;;;5119349;28;20475;-80
2021/06/25 05:11:33;;;;;;;17.40;15.60;;;17.90;99.90;;;;;;5118603;28;20458;-80
2021/06/25 05:14:00;;;;;;;19.13;15.80;;;18.00;99.90;;;;;;5119202;28;20456;-81
2021/06/25 05:16:28;;;;;;;19.40;15.30;;;18.00;99.90;;;;;;5106153;28;20448;-82
2021/06/25 05:18:54;;;;;;;15.57;13.93;;;18.00;99.90;;;;;;5104811;28;20445;-82
2021/06/25 05:21:22;;;;;;;18.00;16.07;;;18.10;99.90;;;;;;5102632;28;20464;-81
2021/06/25 05:23:49;;;;;;;21.77;14.97;;;18.10;99.90;;;;;;5104974;28;20940;-81
2021/06/25 05:26:15;;;;;;;16.53;14.80;;;18.10;99.90;;;;;;5101585;28;20983;-81
2021/06/25 05:28:42;;;;;;;16.43;14.40;;;18.10;99.90;;;;;;5101086;28;20783;-82
2021/06/25 05:31:09;;;;;;;17.60;15.00;;;17.80;99.90;;;;;;5102520;28;20974;-82
2021/06/25 05:33:37;;;;;;;19.10;13.90;;;18.20;99.90;;;;;;5102881;28;20466;-82
2021/06/25 05:36:04;;;;;;;15.90;14.30;;;18.20;99.90;;;;;;5101502;28;20869;-82
2021/06/25 05:38:30;;;;;;;16.73;14.97;;;18.20;99.90;;;;;;5100935;28;20846;-82
2021/06/25 05:40:57;;;;;;;16.13;14.57;;;18.20;99.90;;;;;;5101051;28;20809;-82
2021/06/25 05:43:24;;;;;;;15.70;13.90;;;18.20;99.90;;;;;;5100553;28;20450;-82
2021/06/25 05:45:50;;;;;;;14.47;13.07;;;18.30;99.90;;;;;;5100997;28;20475;-81
2021/06/25 05:48:17;;;;;;;16.10;12.97;;;18.30;99.90;;;;;;5100602;28;20445;-82
2021/06/25 05:50:45;;;;;;;16.47;13.50;;;18.30;99.90;;;;;;5104047;28;20475;-81
2021/06/25 05:53:12;;;;;;;18.13;13.87;;;18.30;99.90;;;;;;5100557;28;20503;-82
2021/06/25 05:55:42;;;;;;;17.60;13.40;;;18.40;99.90;;;;;;5099064;28;20448;-82
2021/06/25 05:58:08;;;;;;;13.77;12.33;;;18.50;99.90;;;;;;5101482;28;20436;-82
2021/06/25 06:00:35;;;;;;;15.73;11.73;;;18.60;99.90;;;;;;5105808;28;20512;-81
2021/06/25 06:03:04;;;;;;;15.50;11.80;;;18.60;99.90;;;;;;5115294;28;20463;-81
2021/06/25 06:05:31;;;;;;;12.97;11.60;;;18.70;99.90;;;;;;5115224;28;20434;-81
2021/06/25 06:07:59;;;;;;;13.57;11.27;;;18.80;99.90;;;;;;5103970;28;20441;-82
2021/06/25 06:10:28;;;;;;;17.77;12.23;;;18.80;99.90;;;;;;5099730;28;20446;-82
2021/06/25 06:12:55;;;;;;;16.90;10.90;;;18.80;99.90;;;;;;5099661;28;20521;-82
2021/06/25 06:15:21;;;;;;;12.87;10.97;;;18.90;99.90;;;;;;5100117;28;20451;-82
2021/06/25 06:17:48;;;;;;;12.03;10.17;;;19.00;99.90;;;;;;5100248;28;20443;-81
2021/06/25 06:20:19;;;;;;;13.63;10.20;;;19.20;99.90;;;;;;5101034;28;20493;-81
2021/06/25 06:31:13;;;;;;;10.23;9.17;;;19.30;99.90;;;;;;5101632;28;20409;-82
2021/06/25 06:33:41;;;;;;;16.03;11.40;;;19.20;99.90;;;;;;5100529;28;20466;-82
2021/06/25 06:36:12;;;;;;;14.47;10.33;;;19.20;99.90;;;;;;5100672;28;20450;-80
2021/06/25 06:38:38;;;;;;;16.70;9.00;;;19.30;99.90;;;;;;5098673;28;20485;-81
2021/06/25 06:41:06;;;;;;;11.07;9.97;;;19.50;99.90;;;;;;5098686;28;20448;-82
2021/06/25 06:43:34;;;;;;;18.50;11.43;;;19.40;99.90;;;;;;5098990;28;20448;-81
2021/06/25 06:46:01;;;;;;;12.07;10.60;;;19.40;99.90;;;;;;5101257;28;20461;-82
2021/06/25 06:48:27;;;;;;;11.80;10.30;;;19.20;99.90;;;;;;5100939;28;20462;-81
2021/06/25 06:50:55;;;;;;;13.53;10.30;;;19.10;99.90;;;;;;5098512;28;20447;-80
2021/06/25 06:53:21;;;;;;;12.33;11.03;;;19.20;99.90;;;;;;5099835;28;20487;-81
2021/06/25 06:55:48;;;;;;;12.87;10.83;;;19.30;99.90;;;;;;5099824;28;20444;-82
2021/06/25 06:58:16;;;;;;;11.53;10.33;;;19.30;99.90;;;;;;5099347;28;20455;-81
2021/06/25 07:00:42;;;;;;;17.67;11.17;;;19.30;99.90;;;;;;5098848;28;20934;-81
2021/06/25 07:03:09;;;;;;;11.67;9.57;;;19.30;99.90;;;;;;5098609;28;20464;-81
2021/06/25 07:05:35;;;;;;;14.27;10.70;;;19.30;99.90;;;;;;5097758;28;20453;-80
2021/06/25 07:08:02;;;;;;;16.20;9.93;;;19.40;99.90;;;;;;5099402;28;20450;-81
2021/06/25 07:10:28;;;;;;;9.00;7.80;;;19.50;99.90;;;;;;5098911;28;20444;-80
2021/06/25 07:12:55;;;;;;;10.10;9.03;;;19.60;99.90;;;;;;5099839;28;20508;-81
2021/06/25 07:15:40;;;;;;;9.70;8.70;;;19.70;99.90;;;;;;5101860;28;20583;-84
2021/06/25 07:18:08;;;;;;;8.87;8.07;;;19.70;99.90;;;;;;5100531;28;20844;-81
2021/06/25 07:20:34;;;;;;;8.57;7.57;;;19.70;99.90;;;;;;5098835;28;20444;-81
2021/06/25 07:23:01;;;;;;;11.20;9.57;;;19.60;99.90;;;;;;5099188;28;20827;-81
2021/06/25 07:25:29;;;;;;;11.03;8.60;;;19.70;99.90;;;;;;5098117;28;21017;-81
2021/06/25 07:27:56;;;;;;;8.10;7.40;;;19.60;99.90;;;;;;5099467;28;20469;-82
2021/06/25 07:30:24;;;;;;;11.77;9.50;;;19.60;99.90;;;;;;5101638;28;20443;-80
2021/06/25 07:32:51;;;;;;;8.57;7.77;;;19.60;99.90;;;;;;5107668;28;20495;-79
2021/06/25 07:35:18;;;;;;;41.93;34.07;;;19.50;99.90;;;;;;5105995;28;20448;-81
2021/06/25 07:37:44;;;;;;;11.00;9.80;;;19.60;99.90;;;;;;5101523;28;20443;-80
2021/06/25 07:40:12;;;;;;;9.40;8.40;;;19.50;99.90;;;;;;5105811;28;20446;-79
2021/06/25 07:42:39;;;;;;;12.40;9.60;;;19.50;99.90;;;;;;5108319;28;20460;-81
2021/06/25 07:45:09;;;;;;;12.83;10.43;;;19.50;99.90;;;;;;5104161;28;20440;-81
2021/06/25 07:47:38;;;;;;;13.93;9.60;;;19.50;99.90;;;;;;5106123;28;20428;-81
2021/06/25 07:50:07;;;;;;;11.43;8.40;;;19.50;99.90;;;;;;5101185;28;20448;-81
2021/06/25 07:52:33;;;;;;;15.57;8.50;;;19.50;99.90;;;;;;5100624;28;20474;-81
2021/06/25 07:55:00;;;;;;;9.60;8.70;;;19.50;99.90;;;;;;5098533;28;20459;-81
2021/06/25 07:57:27;;;;;;;9.30;8.37;;;19.60;99.90;;;;;;5099913;28;20787;-81
2021/06/25 07:59:53;;;;;;;9.17;8.37;;;19.70;99.90;;;;;;5100564;28;20462;-81
2021/06/25 08:02:20;;;;;;;12.67;8.20;;;19.70;99.90;;;;;;5102597;28;20470;-81
2021/06/25 08:04:48;;;;;;;9.87;8.67;;;19.60;99.90;;;;;;5102745;28;20514;-80
2021/06/25 08:07:16;;;;;;;11.37;9.30;;;19.60;99.90;;;;;;5099281;28;20508;-80
2021/06/25 08:09:44;;;;;;;14.03;9.20;;;19.50;99.90;;;;;;5098197;28;20493;-81
2021/06/25 08:12:12;;;;;;;13.03;8.53;;;19.50;99.90;;;;;;5097664;28;20464;-81
2021/06/25 08:14:38;;;;;;;10.57;9.57;;;19.60;99.90;;;;;;5098290;28;20490;-81
2021/06/25 08:17:06;;;;;;;10.60;8.27;;;19.60;99.90;;;;;;5097486;28;20828;-81
2021/06/25 08:19:34;;;;;;;12.33;9.63;;;19.60;99.90;;;;;;5099930;28;20448;-81
2021/06/25 08:22:02;;;;;;;12.23;11.03;;;19.80;99.90;;;;;;5101410;28;20887;-81
2021/06/25 08:24:29;;;;;;;12.67;9.40;;;20.00;99.90;;;;;;5103230;28;20474;-79
2021/06/25 08:26:55;;;;;;;10.87;9.80;;;20.10;99.90;;;;;;5104315;28;20503;-80
2021/06/25 08:29:22;;;;;;;13.97;12.50;;;20.30;99.90;;;;;;5102072;28;20995;-81
2021/06/25 08:31:49;;;;;;;16.70;9.33;;;20.20;99.90;;;;;;5120264;28;20451;-79
2021/06/25 08:34:16;;;;;;;11.07;9.80;;;20.20;99.90;;;;;;5107580;28;20487;-80
2021/06/25 08:36:43;;;;;;;10.90;9.77;;;20.40;99.90;;;;;;5101420;28;20458;-80
2021/06/25 08:39:11;;;;;;;13.83;8.87;;;20.30;99.90;;;;;;5101399;28;20485;-80
2021/06/25 08:41:39;;;;;;;10.97;9.87;;;20.40;99.90;;;;;;5100402;28;20525;-81
2021/06/25 08:44:11;;;;;;;9.93;8.93;;;20.30;99.90;;;;;;5100152;28;20470;-80
2021/06/25 08:46:38;;;;;;;11.73;9.80;;;20.40;99.90;;;;;;5099852;28;20428;-81
2021/06/25 08:49:05;;;;;;;14.27;12.87;;;20.30;99.90;;;;;;5099595;28;20478;-81
2021/06/25 08:51:33;;;;;;;12.93;11.60;;;20.50;99.90;;;;;;5099783;28;20506;-80
2021/06/25 08:54:00;;;;;;;10.23;9.20;;;20.60;99.90;;;;;;5102401;28;20491;-81
2021/06/25 08:56:32;;;;;;;20.00;13.63;;;20.60;99.90;;;;;;5103250;28;20444;-81
2021/06/25 08:59:00;;;;;;;12.93;10.70;;;20.70;99.90;;;;;;5102047;28;20436;-81
2021/06/25 09:01:31;;;;;;;9.77;8.97;;;20.60;99.90;;;;;;5100417;28;20989;-81
2021/06/25 09:03:57;;;;;;;11.40;9.10;;;20.60;99.90;;;;;;5105033;28;20428;-81
2021/06/25 09:06:25;;;;;;;8.20;7.50;;;20.80;99.90;;;;;;5099098;28;20472;-80
2021/06/25 09:08:52;;;;;;;10.77;8.80;;;21.00;99.90;;;;;;5100828;28;20458;-82
2021/06/25 09:11:21;;;;;;;10.10;8.60;;;21.10;99.90;;;;;;5100604;28;20460;-81
2021/06/25 09:13:56;;;;;;;9.77;8.80;;;21.30;99.90;;;;;;5100412;28;20521;-81
2021/06/25 09:16:25;;;;;;;11.13;9.40;;;21.50;99.90;;;;;;5100742;28;20439;-81
2021/06/25 09:18:57;;;;;;;9.90;8.40;;;21.70;99.90;;;;;;5101576;28;20447;-81
2021/06/25 09:21:23;;;;;;;11.27;9.07;;;21.70;99.90;;;;;;5104019;28;20471;-81
2021/06/25 09:23:50;;;;;;;12.80;8.67;;;21.80;99.90;;;;;;5119190;28;20455;-79
2021/06/25 09:26:20;;;;;;;9.33;8.40;;;21.70;99.90;;;;;;5118352;28;20443;-79
2021/06/25 09:28:48;;;;;;;10.53;7.50;;;21.70;99.90;;;;;;5119260;28;20433;-79
2021/06/25 09:33:59;;;;;;;25.33;10.80;;;21.40;99.90;;;;;;5078529;28;20496;-85
2021/06/25 09:36:27;;;;;;;12.97;8.23;;;21.50;99.90;;;;;;5080103;28;20453;-86
2021/06/25 09:38:58;;;;;;;11.20;7.27;;;21.50;99.90;;;;;;5093441;28;20409;-85
2021/06/25 09:41:26;;;;;;;8.80;7.57;;;21.50;99.90;;;;;;5094871;28;20437;-84
2021/06/25 09:43:55;;;;;;;9.57;8.43;;;21.60;99.90;;;;;;5096495;28;20462;-85
2021/06/25 09:46:28;;;;;;;8.40;7.60;;;21.80;99.90;;;;;;5093922;28;20487;-86
2021/06/25 09:48:58;;;;;;;8.43;7.53;;;21.80;99.90;;;;;;5083604;28;20864;-86
2021/06/25 09:51:25;;;;;;;9.20;8.40;;;22.20;99.90;;;;;;5080854;28;20444;-86
2021/06/25 09:54:07;;;;;;;8.57;7.60;;;21.80;99.90;;;;;;5079252;28;20538;-86
2021/06/25 09:56:38;;;;;;;7.10;6.60;;;21.70;99.90;;;;;;5078986;28;20818;-85
2021/06/25 09:59:39;;;;;;;6.93;6.43;;;21.70;99.90;;;;;;5078524;28;20505;-86
2021/06/25 10:02:23;;;;;;;9.73;7.17;;;21.60;99.90;;;;;;5078080;28;20478;-86
2021/06/25 10:04:52;;;;;;;8.50;7.30;;;21.70;99.90;;;;;;5079137;28;20444;-87
2021/06/25 10:07:20;;;;;;;10.37;8.03;;;21.70;99.90;;;;;;5079326;28;20449;-86
2021/06/25 10:09:50;;;;;;;10.20;8.07;;;21.70;99.90;;;;;;5079401;28;20495;-86
2021/06/25 10:12:19;;;;;;;7.63;6.87;;;21.50;99.90;;;;;;5082004;28;20468;-86
2021/06/25 10:14:46;;;;;;;7.33;6.63;;;21.50;99.90;;;;;;5096433;28;20464;-84
2021/06/25 10:17:13;;;;;;;8.30;7.70;;;21.40;99.90;;;;;;5088752;28;20491;-84
2021/06/25 10:20:01;;;;;;;11.37;7.47;;;21.50;99.90;;;;;;5081475;28;20501;-86
2021/06/25 10:22:29;;;;;;;10.60;7.47;;;21.50;99.90;;;;;;5079942;28;20464;-86
2021/06/25 10:24:57;;;;;;;8.47;7.67;;;21.40;99.90;;;;;;5082650;28;20445;-86
2021/06/25 10:27:24;;;;;;;7.83;6.40;;;21.10;99.90;;;;;;5082147;28;20453;-86
2021/06/25 10:29:52;;;;;;;8.83;7.80;;;21.50;99.90;;;;;;5083506;28;20944;-86
2021/06/25 10:32:19;;;;;;;6.10;5.60;;;21.60;99.90;;;;;;5078994;28;20477;-86
2021/06/25 10:34:47;;;;;;;8.10;6.77;;;21.70;99.90;;;;;;5078896;28;20490;-85
2021/06/25 10:37:20;;;;;;;8.77;6.40;;;22.00;99.90;;;;;;5078840;28;20441;-85
2021/06/25 10:39:47;;;;;;;6.73;6.13;;;22.10;99.90;;;;;;5079773;28;20425;-87
2021/06/25 10:42:14;;;;;;;7.23;6.60;;;22.30;99.90;;;;;;5077848;28;20468;-86
2021/06/25 10:44:43;;;;;;;7.67;6.97;;;22.50;99.90;;;;;;5079165;28;20444;-87
2021/06/25 10:47:18;;;;;;;9.40;7.93;;;22.60;99.90;;;;;;5079294;28;20812;-86
2021/06/25 10:50:31;;;;;;;8.00;6.90;;;22.60;99.90;;;;;;5079954;28;20432;-86
2021/06/25 10:53:11;;;;;;;7.47;6.87;;;22.50;99.90;;;;;;5082206;28;20467;-86
2021/06/25 10:55:45;;;;;;;8.10;7.40;;;22.40;99.90;;;;;;5083823;28;20431;-86
2021/06/25 10:58:19;;;;;;;12.73;7.43;;;22.30;99.90;;;;;;5081039;28;20798;-86
2021/06/25 11:00:56;;;;;;;9.33;6.57;;;22.20;99.90;;;;;;5082630;28;20425;-86
2021/06/25 11:03:32;;;;;;;9.07;8.30;;;22.30;99.90;;;;;;5080552;28;20468;-87
2021/06/25 11:05:58;;;;;;;7.50;6.90;;;22.20;99.90;;;;;;5078520;28;20490;-85
2021/06/25 11:08:26;;;;;;;10.80;8.67;;;22.30;99.90;;;;;;5078773;28;20474;-86
2021/06/25 11:10:56;;;;;;;7.70;7.00;;;22.30;99.90;;;;;;5080719;28;20444;-85
2021/06/25 11:13:25;;;;;;;7.47;6.87;;;22.30;99.90;;;;;;5078501;28;20472;-86
2021/06/25 11:15:53;;;;;;;13.13;9.30;;;22.30;99.90;;;;;;5080501;28;20448;-86
2021/06/25 11:18:22;;;;;;;9.47;8.60;;;22.20;99.90;;;;;;5079448;28;20494;-86
2021/06/25 11:20:51;;;;;;;7.53;6.83;;;22.30;99.90;;;;;;5081790;28;20456;-86
2021/06/25 11:23:23;;;;;;;8.73;7.83;;;22.30;99.90;;;;;;5087429;28;20465;-86
2021/06/25 11:25:56;;;;;;;7.60;6.90;;;22.30;99.90;;;;;;5086901;28;20486;-86
2021/06/25 11:28:37;;;;;;;7.20;6.60;;;22.20;99.90;;;;;;5085932;28;20478;-86
2021/06/25 11:31:10;;;;;;;8.07;7.33;;;22.20;99.90;;;;;;5085967;28;20429;-87
2021/06/25 11:33:40;;;;;;;6.93;6.20;;;22.20;99.90;;;;;;5086512;28;20472;-86
2021/06/25 11:36:28;;;;;;;7.00;6.40;;;22.30;99.90;;;;;;5087462;28;20505;-85
2021/06/25 11:39:00;;;;;;;5.30;4.80;;;22.20;99.90;;;;;;5088863;28;20452;-87
2021/06/25 11:41:33;;;;;;;6.40;5.70;;;22.20;99.90;;;;;;5087100;28;20486;-85
2021/06/25 11:44:02;;;;;;;6.33;5.00;;;22.30;99.90;;;;;;5080729;28;20432;-86
2021/06/25 11:46:29;;;;;;;4.83;4.33;;;22.40;99.90;;;;;;5079947;28;20440;-86
2021/06/25 11:49:00;;;;;;;5.20;4.70;;;22.40;99.90;;;;;;5079468;28;20449;-87
2021/06/25 11:51:45;;;;;;;6.00;5.47;;;22.80;99.90;;;;;;5081095;28;20935;-87
2021/06/25 11:54:13;;;;;;;5.03;4.63;;;22.70;99.90;;;;;;5081491;28;20473;-85
2021/06/25 11:56:46;;;;;;;10.10;7.43;;;22.80;99.90;;;;;;5084498;28;20478;-85
2021/06/25 11:59:15;;;;;;;5.63;5.13;;;23.00;99.90;;;;;;5082257;28;20460;-86
2021/06/25 12:01:54;;;;;;;5.57;5.07;;;23.10;99.90;;;;;;5084714;28;20521;-87
2021/06/25 12:04:39;;;;;;;6.80;5.40;;;23.30;99.90;;;;;;5088843;28;20437;-86
2021/06/25 12:07:13;;;;;;;7.33;6.30;;;23.50;99.90;;;;;;5093178;28;20458;-87
2021/06/25 12:09:49;;;;;;;6.83;4.50;;;23.50;99.90;;;;;;5096974;28;20462;-85
2021/06/25 12:12:25;;;;;;;5.40;4.87;;;23.50;99.90;;;;;;5096656;28;20460;-85
2021/06/25 12:14:53;;;;;;;5.97;5.33;;;23.40;99.90;;;;;;5090109;28;20466;-85
2021/06/25 12:17:21;;;;;;;6.90;4.97;;;23.40;99.90;;;;;;5082974;28;20449;-85
2021/06/25 12:19:59;;;;;;;6.53;5.93;;;23.50;99.90;;;;;;5085141;28;20502;-86
2021/06/25 12:22:26;;;;;;;5.40;4.97;;;23.00;99.90;;;;;;5082879;28;20524;-84
2021/06/25 12:24:56;;;;;;;6.50;5.90;;;23.00;99.90;;;;;;5083099;28;20445;-85
2021/06/25 12:27:42;;;;;;;5.30;4.97;;;23.20;99.90;;;;;;5080621;28;20948;-86
2021/06/25 12:30:15;;;;;;;5.80;5.20;;;23.30;99.90;;;;;;5082039;28;20429;-85
2021/06/25 12:32:42;;;;;;;5.87;5.37;;;23.30;99.90;;;;;;5082134;28;20533;-86
2021/06/25 12:35:10;;;;;;;5.53;5.10;;;23.50;99.90;;;;;;5084028;28;20568;-85
2021/06/25 12:37:52;;;;;;;5.07;4.67;;;23.40;99.90;;;;;;5095312;28;20441;-85
2021/06/25 12:40:44;;;;;;;5.70;5.20;;;23.20;99.90;;;;;;5097864;28;20451;-85
2021/06/25 12:43:13;;;;;;;5.70;5.20;;;23.30;99.90;;;;;;5075460;28;20461;-86
2021/06/25 12:45:45;;;;;;;6.10;4.63;;;23.40;99.90;;;;;;5082301;28;20438;-85
2021/06/25 12:48:15;;;;;;;6.87;4.87;;;23.50;99.90;;;;;;5081556;28;20421;-86
2021/06/25 12:50:43;;;;;;;5.10;4.50;;;23.80;99.90;;;;;;5081829;28;20990;-85
2021/06/25 12:53:22;;;;;;;5.93;5.10;;;24.00;99.90;;;;;;5084223;28;20457;-85
2021/06/25 12:55:49;;;;;;;4.50;4.10;;;23.90;99.90;;;;;;5088039;28;20544;-87
2021/06/25 12:58:20;;;;;;;4.73;4.33;;;23.90;99.90;;;;;;5085295;28;20526;-85